createdAt,value
2022-10-03T00:00:03.883Z,25.93
2022-10-03T00:03:29.600Z,25.92
2022-10-03T00:06:30.680Z,25.95
2022-10-03T00:09:37.401Z,25.93
2022-10-03T00:12:47.620Z,25.96
2022-10-03T00:15:40.981Z,25.92
2022-10-03T00:18:37.355Z,25.91
2022-10-03T00:21:43.282Z,25.92
2022-10-03T00:24:42.048Z,25.92
2022-10-03T00:27:35.521Z,25.91
2022-10-03T00:30:26.238Z,25.91
2022-10-03T00:33:20.845Z,25.89
2022-10-03T00:36:13.512Z,25.91
2022-10-03T00:39:16.025Z,25.91
2022-10-03T00:42:39.959Z,25.92
2022-10-03T00:45:49.684Z,25.89
2022-10-03T00:49:16.716Z,25.91
2022-10-03T00:52:17.057Z,25.89
2022-10-03T00:55:16.823Z,25.91
2022-10-03T00:58:25.920Z,25.91
2022-10-03T01:01:31.482Z,25.88
2022-10-03T01:04:32.272Z,25.88
2022-10-03T01:07:33.482Z,25.90
2022-10-03T01:10:24.891Z,25.89
2022-10-03T01:13:24.858Z,25.92
2022-10-03T01:16:21.492Z,25.92
2022-10-03T01:19:27.306Z,25.98
2022-10-03T01:22:31.421Z,25.94
2022-10-03T01:25:20.993Z,25.93
2022-10-03T01:28:57.297Z,25.91
2022-10-03T01:31:50.332Z,25.92
2022-10-03T01:34:45.103Z,25.92
2022-10-03T01:37:38.623Z,25.93
2022-10-03T01:40:30.958Z,25.89
2022-10-03T01:43:22.137Z,25.92
2022-10-03T01:46:18.260Z,25.92
2022-10-03T01:49:13.489Z,25.96
2022-10-03T01:52:06.560Z,25.93
2022-10-03T01:55:05.307Z,25.92
2022-10-03T01:58:01.116Z,25.91
2022-10-03T02:00:57.548Z,25.92
2022-10-03T02:03:54.845Z,25.94
2022-10-03T02:06:50.208Z,25.92
2022-10-03T02:09:46.692Z,25.92
2022-10-03T02:12:38.837Z,25.92
2022-10-03T02:15:30.214Z,25.93
2022-10-03T02:18:24.749Z,25.92
2022-10-03T02:21:21.010Z,25.92
2022-10-03T02:24:27.245Z,25.91
2022-10-03T02:27:34.351Z,25.92
2022-10-03T02:30:23.535Z,25.93
2022-10-03T02:34:04.273Z,25.94
2022-10-03T02:37:25.698Z,25.93
2022-10-03T02:40:33.071Z,25.92
2022-10-03T02:43:49.926Z,25.90
2022-10-03T02:47:05.744Z,25.88
2022-10-03T02:50:38.962Z,25.89
2022-10-03T02:53:54.527Z,25.89
2022-10-03T02:57:05.145Z,25.88
2022-10-03T03:00:07.117Z,25.86
2022-10-03T03:03:30.975Z,25.87
2022-10-03T03:06:33.238Z,25.87
2022-10-03T03:09:38.662Z,25.88
2022-10-03T03:13:09.396Z,25.92
2022-10-03T03:16:13.591Z,25.91
2022-10-03T03:19:22.890Z,25.89
2022-10-03T03:22:25.334Z,25.88
2022-10-03T03:25:45.053Z,25.89
2022-10-03T03:28:43.428Z,25.89
2022-10-03T03:31:36.050Z,25.93
2022-10-03T03:34:27.666Z,25.91
2022-10-03T03:37:23.015Z,25.92
2022-10-03T03:40:21.230Z,25.87
2022-10-03T03:43:24.809Z,25.92
2022-10-03T03:46:26.507Z,25.89
2022-10-03T03:49:29.457Z,25.91
2022-10-03T03:52:36.043Z,25.92
2022-10-03T03:55:43.088Z,25.92
2022-10-03T03:58:41.895Z,25.90
2022-10-03T04:01:49.556Z,25.88
2022-10-03T04:04:52.043Z,25.91
2022-10-03T04:07:50.727Z,25.89
2022-10-03T04:10:54.582Z,25.92
2022-10-03T04:14:16.811Z,25.92
2022-10-03T04:17:34.728Z,25.91
2022-10-03T04:20:35.809Z,25.92
2022-10-03T04:23:38.012Z,25.93
2022-10-03T04:26:39.848Z,25.95
2022-10-03T04:29:44.338Z,25.92
2022-10-03T04:32:47.762Z,25.90
2022-10-03T04:36:10.359Z,25.92
2022-10-03T04:39:08.393Z,25.89
2022-10-03T04:42:00.521Z,25.87
2022-10-03T04:45:04.725Z,25.89
2022-10-03T04:47:55.218Z,25.90
2022-10-03T04:50:46.762Z,25.89
2022-10-03T04:53:46.110Z,25.96
2022-10-03T04:56:42.193Z,25.94
2022-10-03T04:59:38.206Z,25.94
2022-10-03T05:02:43.488Z,25.92
2022-10-03T05:05:43.513Z,25.91
2022-10-03T05:08:37.993Z,25.92
2022-10-03T05:11:38.224Z,25.92
2022-10-03T05:14:34.598Z,25.94
2022-10-03T05:17:26.674Z,25.92
2022-10-03T05:20:39.728Z,25.95
2022-10-03T05:23:40.103Z,25.92
2022-10-03T05:26:45.585Z,25.88
2022-10-03T05:29:41.051Z,25.93
2022-10-03T05:32:34.396Z,25.92
2022-10-03T05:35:31.114Z,25.91
2022-10-03T05:39:03.389Z,25.92
2022-10-03T05:42:11.174Z,25.92
2022-10-03T05:45:05.802Z,25.92
2022-10-03T05:47:59.319Z,25.89
2022-10-03T05:51:13.795Z,25.88
2022-10-03T05:54:49.267Z,25.89
2022-10-03T05:57:54.588Z,25.91
2022-10-03T06:00:57.416Z,25.91
2022-10-03T06:04:05.771Z,25.92
2022-10-03T06:07:07.883Z,25.89
2022-10-03T06:10:28.111Z,25.89
2022-10-03T06:13:21.824Z,25.89
2022-10-03T06:16:23.097Z,25.88
2022-10-03T06:19:22.299Z,25.87
2022-10-03T06:22:37.029Z,25.88
2022-10-03T06:26:02.694Z,25.86
2022-10-03T06:29:26.947Z,25.88
2022-10-03T06:32:55.997Z,25.91
2022-10-03T06:36:21.277Z,25.88
2022-10-03T06:39:42.798Z,25.89
2022-10-03T06:42:47.466Z,25.89
2022-10-03T06:46:08.505Z,25.89
2022-10-03T06:49:20.893Z,25.88
2022-10-03T06:52:25.367Z,25.88
2022-10-03T06:55:47.094Z,25.88
2022-10-03T06:59:09.031Z,25.88
2022-10-03T07:02:08.047Z,25.89
2022-10-03T07:05:40.699Z,25.90
2022-10-03T07:09:14.026Z,25.88
2022-10-03T07:12:16.864Z,25.88
2022-10-03T07:15:38.149Z,25.88
2022-10-03T07:19:20.634Z,25.89
2022-10-03T07:22:44.692Z,25.91
2022-10-03T07:26:10.782Z,25.91
2022-10-03T07:29:17.458Z,25.86
2022-10-03T07:32:19.730Z,25.88
2022-10-03T07:35:23.030Z,25.88
2022-10-03T07:38:58.588Z,25.90
2022-10-03T07:42:25.730Z,25.80
2022-10-03T07:45:41.847Z,25.83
2022-10-03T07:48:57.357Z,25.86
2022-10-03T07:51:58.521Z,25.86
2022-10-03T07:55:04.704Z,25.66
2022-10-03T07:58:07.369Z,25.44
2022-10-03T08:01:09.864Z,25.43
2022-10-03T08:04:18.623Z,25.19
2022-10-03T08:07:19.566Z,25.16
2022-10-03T08:10:40.914Z,25.21
2022-10-03T08:13:38.974Z,25.74
2022-10-03T08:16:46.334Z,26.01
2022-10-03T08:19:53.713Z,26.07
2022-10-03T08:22:47.864Z,26.31
2022-10-03T08:25:51.546Z,26.36
2022-10-03T08:28:52.038Z,26.21
2022-10-03T08:31:59.526Z,26.08
2022-10-03T08:35:06.772Z,26.02
2022-10-03T08:38:17.847Z,25.97
2022-10-03T08:41:55.557Z,25.92
2022-10-03T08:45:15.559Z,25.92
2022-10-03T08:48:41.919Z,25.95
2022-10-03T08:51:59.101Z,25.95
2022-10-03T08:55:26.026Z,26.00
2022-10-03T08:58:45.539Z,26.02
2022-10-03T09:01:50.281Z,26.01
2022-10-03T09:05:06.466Z,26.01
2022-10-03T09:08:33.738Z,26.02
2022-10-03T09:11:33.534Z,26.05
2022-10-03T09:14:34.485Z,26.06
2022-10-03T09:17:38.052Z,26.06
2022-10-03T09:20:56.875Z,26.06
2022-10-03T09:23:57.982Z,26.08
2022-10-03T09:27:12.462Z,26.09
2022-10-03T09:30:19.919Z,26.10
2022-10-03T09:33:44.631Z,26.10
2022-10-03T09:36:56.629Z,26.12
2022-10-03T09:40:30.629Z,26.13
2022-10-03T09:43:57.921Z,26.19
2022-10-03T09:47:28.104Z,26.24
2022-10-03T09:50:52.997Z,26.26
2022-10-03T09:54:23.702Z,26.32
2022-10-03T09:57:40.212Z,26.31
2022-10-03T10:00:33.727Z,26.30
2022-10-03T10:03:44.019Z,26.31
2022-10-03T10:07:06.120Z,26.29
2022-10-03T10:10:06.490Z,26.28
2022-10-03T10:13:24.956Z,26.28
2022-10-03T10:16:25.800Z,26.38
2022-10-03T10:19:51.333Z,26.26
2022-10-03T10:23:16.381Z,26.22
2022-10-03T10:26:34.344Z,26.18
2022-10-03T10:30:02.108Z,26.14
2022-10-03T10:33:27.319Z,26.29
2022-10-03T10:37:02.953Z,26.42
2022-10-03T10:40:21.664Z,26.39
2022-10-03T10:43:38.395Z,26.36
2022-10-03T10:47:03.685Z,26.32
2022-10-03T10:50:27.980Z,26.29
2022-10-03T10:54:08.445Z,26.21
2022-10-03T10:57:17.007Z,26.30
2022-10-03T11:00:16.167Z,26.29
2022-10-03T11:03:33.776Z,26.40
2022-10-03T11:07:01.365Z,26.59
2022-10-03T11:10:31.018Z,26.44
2022-10-03T11:13:55.888Z,26.38
2022-10-03T11:17:08.118Z,26.33
2022-10-03T11:20:41.177Z,26.29
2022-10-03T11:23:56.817Z,26.31
2022-10-03T11:27:26.710Z,26.23
2022-10-03T11:30:24.197Z,26.14
2022-10-03T11:33:53.814Z,26.14
2022-10-03T11:37:11.276Z,26.16
2022-10-03T11:40:13.922Z,26.09
2022-10-03T11:43:50.058Z,25.98
2022-10-03T11:47:02.408Z,25.98
2022-10-03T11:50:22.676Z,26.02
2022-10-03T11:53:16.358Z,25.96
2022-10-03T11:56:17.332Z,26.03
2022-10-03T11:59:31.797Z,26.04
2022-10-03T12:02:40.634Z,26.02
2022-10-03T12:05:41.334Z,26.12
2022-10-03T12:08:50.551Z,26.09
2022-10-03T12:11:45.328Z,26.07
2022-10-03T12:14:36.445Z,26.12
2022-10-03T12:17:32.128Z,26.09
2022-10-03T12:20:26.820Z,26.08
2022-10-03T12:23:28.909Z,26.11
2022-10-03T12:26:19.805Z,26.10
2022-10-03T12:29:12.388Z,26.09
2022-10-03T12:32:21.238Z,26.08
2022-10-03T12:35:20.630Z,26.08
2022-10-03T12:38:19.001Z,26.10
2022-10-03T12:41:18.335Z,26.10
2022-10-03T12:44:18.424Z,26.12
2022-10-03T12:47:37.617Z,26.10
2022-10-03T12:50:47.735Z,26.07
2022-10-03T12:53:50.786Z,25.98
2022-10-03T12:56:46.499Z,25.96
2022-10-03T12:59:42.967Z,25.98
2022-10-03T13:02:38.946Z,25.99
2022-10-03T13:06:01.906Z,26.00
2022-10-03T13:09:12.146Z,26.00
2022-10-03T13:12:07.254Z,26.04
2022-10-03T13:15:34.194Z,26.05
2022-10-03T13:18:36.222Z,26.02
2022-10-03T13:21:45.990Z,26.01
2022-10-03T13:24:40.019Z,26.03
2022-10-03T13:27:37.053Z,26.05
2022-10-03T13:30:27.152Z,26.08
2022-10-03T13:33:20.741Z,26.04
2022-10-03T13:36:16.950Z,26.07
2022-10-03T13:39:14.614Z,26.07
2022-10-03T13:42:11.979Z,26.03
2022-10-03T13:45:04.213Z,26.03
2022-10-03T13:47:55.997Z,26.03
2022-10-03T13:50:51.284Z,26.05
2022-10-03T13:53:55.123Z,26.02
2022-10-03T13:56:54.569Z,25.99
2022-10-03T13:59:55.130Z,26.02
2022-10-03T14:02:58.991Z,26.03
2022-10-03T14:06:02.154Z,26.00
2022-10-03T14:09:06.629Z,26.03
2022-10-03T14:12:02.370Z,25.98
2022-10-03T14:15:00.531Z,25.95
2022-10-03T14:17:53.300Z,25.96
2022-10-03T14:21:20.583Z,25.93
2022-10-03T14:24:22.098Z,25.91
2022-10-03T14:27:27.719Z,25.94
2022-10-03T14:30:18.775Z,25.98
2022-10-03T14:33:17.140Z,25.93
2022-10-03T14:36:18.314Z,25.93
2022-10-03T14:39:25.933Z,25.95
2022-10-03T14:42:33.939Z,25.92
2022-10-03T14:45:26.441Z,25.88
2022-10-03T14:48:17.929Z,25.96
2022-10-03T14:51:14.555Z,25.94
2022-10-03T14:54:05.728Z,25.93
2022-10-03T14:56:54.591Z,25.93
2022-10-03T14:59:52.169Z,25.96
2022-10-03T15:02:48.333Z,26.01
2022-10-03T15:05:38.453Z,26.01
2022-10-03T15:08:31.214Z,26.05
2022-10-03T15:11:26.582Z,26.05
2022-10-03T15:14:15.259Z,26.01
2022-10-03T15:17:06.984Z,26.07
2022-10-03T15:19:57.168Z,26.06
2022-10-03T15:22:50.739Z,26.08
2022-10-03T15:25:41.213Z,26.06
2022-10-03T15:28:32.706Z,26.12
2022-10-03T15:31:27.926Z,26.14
2022-10-03T15:34:21.574Z,26.16
2022-10-03T15:37:16.646Z,26.16
2022-10-03T15:40:09.528Z,26.14
2022-10-03T15:43:05.910Z,26.12
2022-10-03T15:45:54.517Z,26.10
2022-10-03T15:48:47.499Z,26.15
2022-10-03T15:51:39.598Z,26.19
2022-10-03T15:54:32.563Z,26.19
2022-10-03T15:57:26.964Z,26.16
2022-10-03T16:00:42.382Z,26.16
2022-10-03T16:03:40.980Z,26.24
2022-10-03T16:06:36.457Z,26.21
2022-10-03T16:09:42.755Z,26.25
2022-10-03T16:13:01.594Z,26.26
2022-10-03T16:16:18.162Z,26.27
2022-10-03T16:19:44.061Z,26.30
2022-10-03T16:22:44.560Z,26.32
2022-10-03T16:25:47.644Z,26.42
2022-10-03T16:28:44.793Z,26.41
2022-10-03T16:31:40.680Z,26.52
2022-10-03T16:34:32.911Z,26.59
2022-10-03T16:37:27.684Z,26.65
2022-10-03T16:40:24.576Z,26.68
2022-10-03T16:43:19.836Z,26.76
2022-10-03T16:46:15.225Z,26.91
2022-10-03T16:49:29.935Z,26.82
2022-10-03T16:52:21.955Z,26.83
2022-10-03T16:55:18.518Z,26.75
2022-10-03T16:58:18.642Z,26.72
2022-10-03T17:01:29.828Z,26.72
2022-10-03T17:04:26.970Z,26.67
2022-10-03T17:07:19.054Z,26.70
2022-10-03T17:10:24.941Z,26.69
2022-10-03T17:13:17.725Z,26.68
2022-10-03T17:16:14.552Z,26.63
2022-10-03T17:19:15.117Z,26.65
2022-10-03T17:22:08.820Z,26.69
2022-10-03T17:25:02.986Z,26.72
2022-10-03T17:27:52.140Z,26.69
2022-10-03T17:30:46.775Z,26.65
2022-10-03T17:33:42.445Z,26.55
2022-10-03T17:36:45.881Z,26.55
2022-10-03T17:39:49.812Z,26.59
2022-10-03T17:42:43.386Z,26.61
2022-10-03T17:45:40.116Z,26.58
2022-10-03T17:48:36.624Z,26.53
2022-10-03T17:51:36.597Z,26.52
2022-10-03T17:54:29.270Z,26.53
2022-10-03T17:57:23.013Z,26.53
2022-10-03T18:00:19.474Z,26.58
2022-10-03T18:03:11.052Z,26.49
2022-10-03T18:06:01.547Z,26.50
2022-10-03T18:08:51.926Z,26.49
2022-10-03T18:11:43.750Z,26.44
2022-10-03T18:14:38.332Z,26.43
2022-10-03T18:17:34.473Z,26.42
2022-10-03T18:20:38.587Z,26.41
2022-10-03T18:23:53.786Z,26.40
2022-10-03T18:26:48.713Z,26.39
2022-10-03T18:29:38.389Z,26.38
2022-10-03T18:32:29.773Z,26.37
2022-10-03T18:35:22.419Z,26.42
2022-10-03T18:38:15.200Z,26.44
2022-10-03T18:41:05.053Z,26.45
2022-10-03T18:43:59.775Z,26.36
2022-10-03T18:46:52.753Z,26.28
2022-10-03T18:49:42.985Z,26.29
2022-10-03T18:52:33.602Z,26.32
2022-10-03T18:55:29.371Z,26.34
2022-10-03T18:58:20.954Z,26.34
2022-10-03T19:01:18.211Z,26.36
2022-10-03T19:04:09.379Z,26.37
2022-10-03T19:06:58.783Z,26.35
2022-10-03T19:10:19.760Z,26.37
2022-10-03T19:13:18.100Z,26.39
2022-10-03T19:16:29.724Z,26.40
2022-10-03T19:19:26.510Z,26.39
2022-10-03T19:22:17.845Z,26.35
2022-10-03T19:25:09.462Z,26.36
2022-10-03T19:28:01.000Z,26.37
2022-10-03T19:31:00.188Z,26.41
2022-10-03T19:33:51.324Z,26.41
2022-10-03T19:36:41.482Z,26.43
2022-10-03T19:39:32.491Z,26.39
2022-10-03T19:42:28.112Z,26.38
2022-10-03T19:45:17.197Z,26.40
2022-10-03T19:48:10.410Z,26.41
2022-10-03T19:51:13.370Z,26.43
2022-10-03T19:54:14.179Z,26.44
2022-10-03T19:57:04.497Z,26.44
2022-10-03T19:59:54.373Z,26.48
2022-10-03T20:02:44.101Z,26.44
2022-10-03T20:05:37.535Z,26.40
2022-10-03T20:08:28.767Z,26.41
2022-10-03T20:11:26.077Z,26.42
2022-10-03T20:14:16.655Z,26.42
2022-10-03T20:17:07.364Z,26.41
2022-10-03T20:19:58.462Z,26.44
2022-10-03T20:22:47.032Z,26.40
2022-10-03T20:25:38.675Z,26.43
2022-10-03T20:28:41.022Z,26.42
2022-10-03T20:31:30.764Z,26.44
2022-10-03T20:34:25.051Z,26.47
2022-10-03T20:37:27.945Z,26.48
2022-10-03T20:40:30.763Z,26.47
2022-10-03T20:43:39.081Z,26.43
2022-10-03T20:46:37.603Z,26.47
2022-10-03T20:49:30.028Z,26.45
2022-10-03T20:52:20.164Z,26.41
2022-10-03T20:55:20.316Z,26.42
2022-10-03T20:58:18.624Z,26.44
2022-10-03T21:01:10.849Z,26.40
2022-10-03T21:04:06.775Z,26.38
2022-10-03T21:07:00.134Z,26.37
2022-10-03T21:09:51.046Z,26.45
2022-10-03T21:12:42.663Z,26.42
2022-10-03T21:15:38.450Z,26.43
2022-10-03T21:18:35.555Z,26.46
2022-10-03T21:21:26.901Z,26.46
2022-10-03T21:24:17.722Z,26.46
2022-10-03T21:27:09.138Z,26.47
2022-10-03T21:30:00.128Z,26.44
2022-10-03T21:33:10.849Z,26.51
2022-10-03T21:36:10.716Z,26.65
2022-10-03T21:39:04.926Z,26.73
2022-10-03T21:42:02.587Z,26.98
2022-10-03T21:45:11.593Z,27.22
2022-10-03T21:48:04.812Z,27.11
2022-10-03T21:50:56.740Z,26.97
2022-10-03T21:53:51.904Z,26.93
2022-10-03T21:56:57.681Z,26.89
2022-10-03T22:00:06.693Z,26.89
2022-10-03T22:03:03.439Z,27.00
2022-10-03T22:05:54.543Z,27.00
2022-10-03T22:08:49.197Z,26.93
2022-10-03T22:11:45.932Z,26.97
2022-10-03T22:14:49.251Z,26.86
2022-10-03T22:17:43.029Z,26.76
2022-10-03T22:20:33.460Z,26.86
2022-10-03T22:23:29.816Z,27.02
2022-10-03T22:26:22.603Z,26.98
2022-10-03T22:29:22.700Z,26.97
2022-10-03T22:32:16.974Z,26.99
2022-10-03T22:35:17.698Z,27.04
2022-10-03T22:38:21.602Z,26.99
2022-10-03T22:41:16.633Z,27.01
2022-10-03T22:44:08.353Z,27.04
2022-10-03T22:46:59.924Z,27.09
2022-10-03T22:49:51.570Z,27.04
2022-10-03T22:52:42.983Z,26.89
2022-10-03T22:55:31.991Z,26.77
2022-10-03T22:58:21.415Z,26.70
2022-10-03T23:01:09.996Z,26.67
2022-10-03T23:03:59.866Z,26.61
2022-10-03T23:07:07.122Z,26.57
2022-10-03T23:10:03.861Z,26.51
2022-10-03T23:12:57.719Z,26.51
2022-10-03T23:15:49.433Z,26.49
2022-10-03T23:18:48.397Z,26.45
2022-10-03T23:21:48.004Z,26.41
2022-10-03T23:24:40.571Z,26.40
2022-10-03T23:27:50.598Z,26.42
2022-10-03T23:30:50.319Z,26.39
2022-10-03T23:33:52.674Z,26.40
2022-10-03T23:37:01.958Z,26.37
2022-10-03T23:40:28.939Z,26.33
2022-10-03T23:43:31.448Z,26.33
2022-10-03T23:46:21.553Z,26.35
2022-10-03T23:49:09.971Z,26.33
2022-10-03T23:51:58.634Z,26.33
2022-10-03T23:54:49.194Z,26.33
2022-10-03T23:57:43.397Z,26.33
